Date,TemperatureHighF,TemperatureAvgF,TemperatureLowF,DewpointHighF,DewpointAvgF,DewpointLowF,HumidityHigh,HumidityAvg,HumidityLow,PressureMaxIn,PressureMinIn,WindSpeedMaxMPH,WindSpeedAvgMPH,GustSpeedMaxMPH,PrecipitationSumIn
2013-1-1,32.7,19.4,10.3,13.9,9.1,5.7,87,66,39,30.47,30.30,5,0,5,0.00
2013-1-2,32.5,20.9,11.2,12.7,7.2,2.4,69,56,33,30.58,30.40,13,1,13,0.01
2013-1-3,38.0,22.8,12.1,9.0,2.7,-1.1,72,44,20,30.59,30.45,9,1,9,0.01
2013-1-4,48.1,28.4,15.5,14.6,7.1,0.5,67,43,20,30.46,30.21,7,1,7,0.00
2013-1-5,39.9,26.6,16.6,16.9,12.4,7.4,70,56,34,30.49,30.25,12,1,12,0.00
2013-1-6,47.9,29.3,14.0,16.8,9.9,2.4,72,48,16,30.47,30.10,9,0,9,0.00
2013-1-7,53.2,36.7,26.1,16.0,12.8,8.6,59,40,18,30.16,29.89,7,0,7,0.00
2013-1-8,53.1,39.8,26.3,20.4,16.4,9.5,61,40,25,30.28,29.87,16,1,16,0.00
2013-1-9,62.2,39.1,22.9,23.7,18.6,14.4,72,47,18,30.40,30.06,12,1,12,0.00
2013-1-10,46.7,35.0,24.3,22.2,18.2,12.4,72,51,29,30.06,29.54,15,1,15,0.00
2013-1-11,45.2,28.1,14.0,26.1,17.2,7.0,87,66,34,29.92,29.33,14,2,14,0.00
2013-1-12,14.0,8.0,3.2,7.4,2.1,-1.1,86,77,59,30.42,29.92,10,1,10,0.00
2013-1-13,14.3,7.0,0.4,3.0,0.0,-4.1,92,73,58,30.55,30.41,10,1,10,0.00
2013-1-14,13.9,6.9,1.9,5.2,1.2,-2.6,85,77,63,30.59,30.46,5,0,5,0.00
2013-1-15,31.4,18.4,-1.2,15.4,4.0,-6.1,82,56,36,30.56,30.43,7,0,7,0.00
2013-1-16,51.8,35.2,23.1,23.6,18.0,12.0,70,51,31,30.48,30.32,7,1,7,0.04
2013-1-17,52.1,35.4,22.4,23.7,19.3,15.0,73,55,27,30.51,30.34,5,0,6,0.00
2013-1-18,58.4,39.5,25.1,17.4,10.9,6.1,64,35,14,30.34,30.14,18,1,18,0.00
2013-1-19,60.9,41.8,26.4,13.5,9.1,2.6,48,29,12,30.30,30.15,7,0,9,0.00
2013-1-20,49.2,33.0,22.0,17.3,14.2,10.7,77,48,22,30.37,30.16,15,1,15,0.00
2013-1-21,56.9,36.2,17.0,19.2,11.8,2.7,83,45,15,30.37,30.17,15,1,15,0.00
2013-1-22,63.2,44.5,27.0,9.1,2.5,-2.7,38,20,8,30.18,30.06,18,2,18,0.00
2013-1-23,57.4,41.1,31.1,18.7,8.6,0.7,39,27,15,30.22,30.13,6,0,6,0.00
2013-1-24,66.3,47.3,28.0,28.6,19.6,10.1,55,35,16,30.18,29.95,23,3,23,0.00
2013-1-25,58.6,43.1,33.0,30.0,25.7,21.8,68,52,32,30.13,29.99,6,0,6,0.00
2013-1-26,53.6,40.1,28.4,36.0,28.0,21.9,90,64,38,30.08,29.77,6,0,6,0.01
2013-1-27,57.6,42.3,29.7,37.7,31.9,23.9,93,70,39,29.80,29.70,7,0,7,0.01
2013-1-28,59.0,39.7,27.0,29.9,25.8,20.9,92,61,25,29.77,29.46,20,1,20,0.00
2013-1-29,31.5,25.5,19.7,24.5,15.6,7.5,90,68,39,30.15,29.75,8,1,8,0.13
2013-1-30,39.8,28.0,12.7,16.5,12.0,5.6,84,53,35,30.15,30.03,23,2,23,0.04
2013-1-31,47.0,37.6,25.7,22.7,18.4,14.7,70,47,29,30.21,30.04,20,3,20,0.04